Time;durP1;ratioP1;P1;durP2;ratioP2;P2;SDS_P1;SDS_P2;PMS_P1;PMS_P2;Temp;Humidity;BMP_temperature;BMP_pressure;BME280_temperature;BME280_humidity;BME280_pressure;Samples;Min_cycle;Max_cycle;Signal;HPM_P1;HPM_P2
2024/02/28 00:01:03;;;;;;;7.88;3.00;;;11.70;99.90;;;;;;5013508;28;20109;-73
2024/02/28 00:03:31;;;;;;;8.20;2.90;;;11.70;99.90;;;;;;5013482;28;20037;-71
2024/02/28 00:05:57;;;;;;;5.93;3.10;;;11.70;99.90;;;;;;5013672;28;20414;-73
2024/02/28 00:08:23;;;;;;;5.10;2.60;;;11.70;99.90;;;;;;5013531;28;20097;-73
2024/02/28 00:10:49;;;;;;;7.10;2.75;;;11.70;99.90;;;;;;5013478;28;20054;-73
2024/02/28 00:13:16;;;;;;;6.50;2.72;;;11.70;99.90;;;;;;5013401;28;20026;-73
2024/02/28 00:15:42;;;;;;;7.88;3.08;;;11.70;99.90;;;;;;5013548;28;20030;-72
2024/02/28 00:18:08;;;;;;;5.63;3.17;;;11.70;99.90;;;;;;5013510;28;20022;-73
2024/02/28 00:20:33;;;;;;;5.00;2.17;;;11.70;99.90;;;;;;5013608;28;20018;-73
2024/02/28 00:22:59;;;;;;;8.82;2.50;;;11.70;99.90;;;;;;5013696;28;20022;-74
2024/02/28 00:25:25;;;;;;;9.35;3.10;;;11.70;99.90;;;;;;5013695;28;20157;-74
2024/02/28 00:27:50;;;;;;;3.70;2.38;;;11.70;99.90;;;;;;5013204;28;20107;-73
2024/02/28 00:30:17;;;;;;;4.63;2.00;;;11.70;99.90;;;;;;5013177;28;20041;-74
2024/02/28 00:32:43;;;;;;;5.78;2.20;;;11.70;99.90;;;;;;5013374;28;20018;-73
2024/02/28 00:35:09;;;;;;;6.82;2.60;;;11.60;99.90;;;;;;5013271;28;20025;-72
2024/02/28 00:37:34;;;;;;;6.75;2.40;;;11.70;99.90;;;;;;5013316;28;20418;-73
2024/02/28 00:40:00;;;;;;;4.28;2.15;;;11.60;99.90;;;;;;5013138;28;20412;-73
2024/02/28 00:42:27;;;;;;;4.00;2.05;;;11.60;99.90;;;;;;5013320;28;20033;-73
2024/02/28 00:44:52;;;;;;;5.72;2.22;;;11.60;99.90;;;;;;5012874;28;20053;-73
2024/02/28 00:47:18;;;;;;;5.38;2.50;;;11.60;99.90;;;;;;5012870;28;20108;-72
2024/02/28 00:49:44;;;;;;;10.80;2.60;;;11.70;99.90;;;;;;5013132;28;20034;-73
2024/02/28 00:52:10;;;;;;;6.72;2.88;;;11.70;99.90;;;;;;5012895;28;20029;-74
2024/02/28 00:54:36;;;;;;;3.70;2.50;;;11.60;99.90;;;;;;5012282;28;20461;-74
2024/02/28 00:57:02;;;;;;;7.10;2.47;;;11.70;99.90;;;;;;5012810;28;20497;-72
2024/02/28 00:59:28;;;;;;;5.22;2.72;;;11.60;99.90;;;;;;5013134;28;20113;-73
2024/02/28 01:01:54;;;;;;;6.85;2.65;;;11.60;99.90;;;;;;5012687;28;20141;-73
2024/02/28 01:04:20;;;;;;;5.28;2.28;;;11.60;99.90;;;;;;5012645;28;20036;-74
2024/02/28 01:06:46;;;;;;;7.60;2.60;;;11.60;99.90;;;;;;5012617;28;20019;-73
2024/02/28 01:09:11;;;;;;;10.25;2.75;;;11.60;99.90;;;;;;5013031;28;20386;-73
2024/02/28 01:11:37;;;;;;;4.22;2.55;;;11.60;99.90;;;;;;5012790;28;20026;-73
2024/02/28 01:14:03;;;;;;;7.15;2.53;;;11.60;99.90;;;;;;5012513;28;20490;-73
2024/02/28 01:16:30;;;;;;;5.28;2.60;;;11.60;99.90;;;;;;5012896;28;20033;-73
2024/02/28 01:18:55;;;;;;;7.68;2.58;;;11.60;99.90;;;;;;5012575;28;20022;-74
2024/02/28 01:21:21;;;;;;;5.03;2.47;;;11.60;99.90;;;;;;5012534;28;20029;-74
2024/02/28 01:23:47;;;;;;;4.90;2.80;;;11.60;99.90;;;;;;5012612;28;20024;-73
2024/02/28 01:26:13;;;;;;;6.18;2.33;;;11.60;99.90;;;;;;5011987;28;20042;-73
2024/02/28 01:28:39;;;;;;;6.82;2.20;;;11.60;99.90;;;;;;5012373;28;20026;-73
2024/02/28 01:31:05;;;;;;;6.40;2.72;;;11.60;99.90;;;;;;5012471;28;20105;-73
2024/02/28 01:33:32;;;;;;;4.35;2.85;;;11.60;99.90;;;;;;5013750;28;20105;-73
2024/02/28 01:35:58;;;;;;;11.02;4.13;;;11.60;99.90;;;;;;5016621;28;20037;-73
2024/02/28 01:38:26;;;;;;;5.60;2.83;;;11.60;99.90;;;;;;5016323;28;20022;-73
2024/02/28 01:40:52;;;;;;;6.78;2.95;;;11.60;99.90;;;;;;5016340;28;20022;-73
2024/02/28 01:43:18;;;;;;;5.63;3.20;;;11.60;99.90;;;;;;5016139;28;20437;-74
2024/02/28 01:45:44;;;;;;;10.52;3.25;;;11.60;99.90;;;;;;5016031;28;20034;-73
2024/02/28 01:48:12;;;;;;;6.38;3.35;;;11.60;99.90;;;;;;5015917;28;20038;-74
2024/02/28 01:50:38;;;;;;;5.70;3.28;;;11.70;99.90;;;;;;5015824;28;20033;-74
2024/02/28 01:53:08;;;;;;;5.45;3.50;;;11.60;99.90;;;;;;5015939;28;20083;-73
2024/02/28 01:55:35;;;;;;;7.40;3.00;;;11.70;99.90;;;;;;5015621;28;20387;-73
2024/02/28 01:58:05;;;;;;;7.03;3.20;;;11.60;99.90;;;;;;5014437;28;20070;-73
2024/02/28 02:00:33;;;;;;;8.98;2.90;;;11.70;99.90;;;;;;5013256;28;20057;-73
2024/02/28 02:03:00;;;;;;;6.40;3.30;;;11.70;99.90;;;;;;5013276;28;20470;-73
2024/02/28 02:05:26;;;;;;;6.97;3.22;;;11.70;99.90;;;;;;5014647;28;20038;-74
2024/02/28 02:07:52;;;;;;;7.07;3.38;;;11.70;99.90;;;;;;5014783;28;20050;-73
2024/02/28 02:10:18;;;;;;;6.60;3.53;;;11.70;99.90;;;;;;5015768;28;20026;-73
2024/02/28 02:12:44;;;;;;;5.95;3.20;;;11.70;99.90;;;;;;5015640;28;20466;-73
2024/02/28 02:15:10;;;;;;;11.82;3.40;;;11.70;99.90;;;;;;5015646;28;20081;-73
2024/02/28 02:17:35;;;;;;;10.20;2.85;;;11.70;99.90;;;;;;5015695;28;20034;-73
2024/02/28 02:20:02;;;;;;;7.03;3.20;;;11.70;99.90;;;;;;5015363;28;20026;-73
2024/02/28 02:22:38;;;;;;;9.77;3.30;;;11.70;99.90;;;;;;5015523;28;20022;-73
2024/02/28 02:25:04;;;;;;;6.28;3.17;;;11.70;99.90;;;;;;5015280;28;20076;-73
2024/02/28 02:27:30;;;;;;;7.13;3.13;;;11.70;99.90;;;;;;5015331;28;20437;-73
2024/02/28 02:29:56;;;;;;;5.82;3.08;;;11.70;99.90;;;;;;5015380;28;20268;-73
2024/02/28 02:32:22;;;;;;;6.18;3.38;;;11.80;99.90;;;;;;5015317;28;20034;-73
2024/02/28 02:34:48;;;;;;;4.07;2.55;;;11.70;99.90;;;;;;5013862;28;20026;-72
2024/02/28 02:37:13;;;;;;;6.03;3.08;;;11.70;99.90;;;;;;5015088;28;20030;-73
2024/02/28 02:39:39;;;;;;;7.82;3.38;;;11.70;99.90;;;;;;5015285;28;20049;-73
2024/02/28 02:42:05;;;;;;;7.97;3.33;;;11.70;99.90;;;;;;5014990;28;20040;-73
2024/02/28 02:44:31;;;;;;;5.50;3.33;;;11.70;99.90;;;;;;5014755;28;20084;-73
2024/02/28 02:46:56;;;;;;;5.78;3.00;;;11.70;99.90;;;;;;5014957;28;20046;-73
2024/02/28 02:49:22;;;;;;;8.13;3.17;;;11.70;99.90;;;;;;5015203;28;20057;-72
2024/02/28 02:51:48;;;;;;;10.65;3.65;;;11.70;99.90;;;;;;5014884;28;20024;-73
2024/02/28 02:54:14;;;;;;;10.80;3.40;;;11.70;99.90;;;;;;5014574;28;20061;-73
2024/02/28 02:56:42;;;;;;;9.43;3.25;;;11.70;99.90;;;;;;5014652;28;20375;-74
2024/02/28 02:59:10;;;;;;;9.05;3.47;;;11.70;99.90;;;;;;5014758;28;20067;-73
2024/02/28 03:01:36;;;;;;;7.20;3.00;;;11.70;99.90;;;;;;5015100;28;20030;-72
2024/02/28 03:04:02;;;;;;;4.65;3.00;;;11.70;99.90;;;;;;5014824;28;20040;-73
2024/02/28 03:06:27;;;;;;;9.00;3.20;;;11.70;99.90;;;;;;5013564;28;20042;-73
2024/02/28 03:08:53;;;;;;;7.80;3.28;;;11.70;99.90;;;;;;5013518;28;20041;-73
2024/02/28 03:11:19;;;;;;;7.15;3.33;;;11.70;99.90;;;;;;5014916;28;20026;-73
2024/02/28 03:13:44;;;;;;;10.55;3.80;;;11.70;99.90;;;;;;5014707;28;20470;-73
2024/02/28 03:16:11;;;;;;;12.82;3.80;;;11.70;99.90;;;;;;5014599;28;20462;-73
2024/02/28 03:18:37;;;;;;;8.40;3.75;;;11.70;99.90;;;;;;5014641;28;20092;-73
2024/02/28 03:21:03;;;;;;;7.80;3.92;;;11.70;99.90;;;;;;5014499;28;20029;-73
2024/02/28 03:23:29;;;;;;;6.07;4.55;;;11.70;99.90;;;;;;5014769;28;20077;-73
2024/02/28 03:25:55;;;;;;;10.43;3.80;;;11.70;99.90;;;;;;5014452;28;20521;-73
2024/02/28 03:28:21;;;;;;;10.60;4.10;;;11.70;99.90;;;;;;5014038;28;20075;-74
2024/02/28 03:30:46;;;;;;;13.98;3.90;;;11.70;99.90;;;;;;5014344;28;20111;-72
2024/02/28 03:33:12;;;;;;;10.57;4.68;;;11.70;99.90;;;;;;5014182;28;20033;-74
2024/02/28 03:35:38;;;;;;;8.45;3.97;;;11.70;99.90;;;;;;5013636;28;20032;-73
2024/02/28 03:38:04;;;;;;;6.65;4.05;;;11.70;99.90;;;;;;5013902;28;20084;-73
2024/02/28 03:40:29;;;;;;;5.28;3.53;;;11.70;99.90;;;;;;5013835;28;20034;-72
2024/02/28 03:42:55;;;;;;;11.27;4.32;;;11.70;99.90;;;;;;5014463;28;20022;-73
2024/02/28 03:45:21;;;;;;;7.88;3.55;;;11.70;99.90;;;;;;5013963;28;20037;-73
2024/02/28 03:47:47;;;;;;;9.30;4.18;;;11.70;99.90;;;;;;5013704;28;20081;-72
2024/02/28 03:50:13;;;;;;;7.05;4.15;;;11.70;99.90;;;;;;5013616;28;20064;-73
2024/02/28 03:52:39;;;;;;;9.52;3.85;;;11.80;99.90;;;;;;5013960;28;20018;-73
2024/02/28 03:55:05;;;;;;;6.63;3.70;;;11.80;99.90;;;;;;5013918;28;20030;-73
2024/02/28 03:57:31;;;;;;;8.38;3.75;;;11.70;99.90;;;;;;5013463;28;20107;-74
2024/02/28 03:59:56;;;;;;;9.73;4.38;;;11.70;99.90;;;;;;5013749;28;20045;-73
2024/02/28 04:02:22;;;;;;;10.82;3.55;;;11.70;99.90;;;;;;5013479;28;20513;-73
2024/02/28 04:04:48;;;;;;;10.20;4.00;;;11.70;99.90;;;;;;5013208;28;20072;-72
2024/02/28 04:07:14;;;;;;;8.00;5.03;;;11.80;99.90;;;;;;5013235;28;20018;-74
2024/02/28 04:09:39;;;;;;;11.10;4.85;;;11.70;99.90;;;;;;5013027;28;20092;-73
2024/02/28 04:12:05;;;;;;;10.57;4.82;;;11.70;99.90;;;;;;5013287;28;20022;-72
2024/02/28 04:14:31;;;;;;;8.65;4.45;;;11.70;99.90;;;;;;5013207;28;20014;-72
2024/02/28 04:16:57;;;;;;;7.32;5.10;;;11.70;99.90;;;;;;5013194;28;20022;-73
2024/02/28 04:19:22;;;;;;;6.00;4.40;;;11.70;99.90;;;;;;5013008;28;20033;-73
2024/02/28 04:21:48;;;;;;;8.68;4.07;;;11.70;99.90;;;;;;5013223;28;20577;-72
2024/02/28 04:24:14;;;;;;;8.65;4.20;;;11.70;99.90;;;;;;5013342;28;20036;-73
2024/02/28 04:26:40;;;;;;;7.63;4.05;;;11.70;99.90;;;;;;5013218;28;20076;-73
2024/02/28 04:29:07;;;;;;;12.15;4.30;;;11.70;99.90;;;;;;5013559;28;20466;-73
2024/02/28 04:31:33;;;;;;;8.07;3.95;;;11.70;99.90;;;;;;5013286;28;20040;-72
2024/02/28 04:33:59;;;;;;;9.45;4.38;;;11.70;99.90;;;;;;5013115;28;20105;-73
2024/02/28 04:36:25;;;;;;;8.45;3.95;;;11.70;99.90;;;;;;5013265;28;20050;-72
2024/02/28 04:38:50;;;;;;;6.50;3.38;;;11.70;99.90;;;;;;5013118;28;20033;-73
2024/02/28 04:41:16;;;;;;;6.07;3.90;;;11.70;99.90;;;;;;5013365;28;20027;-73
2024/02/28 04:43:42;;;;;;;8.25;3.78;;;11.70;99.90;;;;;;5013004;28;20108;-73
2024/02/28 04:46:08;;;;;;;10.05;3.97;;;11.70;99.90;;;;;;5013018;28;20069;-73
2024/02/28 04:48:34;;;;;;;18.02;4.57;;;11.70;99.90;;;;;;5012934;28;20088;-73
2024/02/28 04:51:01;;;;;;;6.32;3.60;;;11.70;99.90;;;;;;5013172;28;20080;-73
2024/02/28 04:53:27;;;;;;;9.27;4.40;;;11.60;99.90;;;;;;5012798;28;20029;-74
2024/02/28 04:55:53;;;;;;;8.15;3.90;;;11.70;99.90;;;;;;5012659;28;20026;-73
2024/02/28 04:58:18;;;;;;;7.13;4.07;;;11.70;99.90;;;;;;5013117;28;20037;-73
2024/02/28 05:00:44;;;;;;;9.98;4.03;;;11.70;99.90;;;;;;5013150;28;20026;-72
2024/02/28 05:03:10;;;;;;;7.35;4.30;;;11.70;99.90;;;;;;5012803;28;20041;-73
2024/02/28 05:05:35;;;;;;;7.40;4.40;;;11.70;99.90;;;;;;5012800;28;20119;-72
2024/02/28 05:08:01;;;;;;;8.43;3.78;;;11.70;99.90;;;;;;5013077;28;20493;-72
2024/02/28 05:10:27;;;;;;;8.57;4.10;;;11.70;99.90;;;;;;5017071;28;20030;-72
2024/02/28 05:12:53;;;;;;;5.25;4.13;;;11.60;99.90;;;;;;5016767;28;20018;-73
2024/02/28 05:15:19;;;;;;;12.48;4.97;;;11.60;99.90;;;;;;5016787;28;20104;-74
2024/02/28 05:17:45;;;;;;;10.60;4.15;;;11.60;99.90;;;;;;5017000;28;20374;-73
2024/02/28 05:20:11;;;;;;;8.32;4.00;;;11.70;99.90;;;;;;5016965;28;20037;-73
2024/02/28 05:22:37;;;;;;;5.72;3.65;;;11.70;99.90;;;;;;5016919;28;20029;-73
2024/02/28 05:25:03;;;;;;;7.47;4.68;;;11.60;99.90;;;;;;5016347;28;20437;-73
2024/02/28 05:27:29;;;;;;;7.60;4.15;;;11.70;99.90;;;;;;5016683;28;20473;-70
2024/02/28 05:29:55;;;;;;;7.20;3.92;;;11.70;99.90;;;;;;5015544;28;20025;-73
2024/02/28 05:32:20;;;;;;;7.15;4.05;;;11.60;99.90;;;;;;5016209;28;20053;-73
2024/02/28 05:34:46;;;;;;;10.38;3.80;;;11.60;99.90;;;;;;5016480;28;20030;-73
2024/02/28 05:37:13;;;;;;;5.95;3.60;;;11.60;99.90;;;;;;5016413;28;20084;-73
2024/02/28 05:39:38;;;;;;;7.90;4.15;;;11.70;99.90;;;;;;5016164;28;20080;-73
2024/02/28 05:42:04;;;;;;;8.68;4.32;;;11.70;99.90;;;;;;5016467;28;20030;-73
2024/02/28 05:44:30;;;;;;;8.50;4.40;;;11.60;99.90;;;;;;5016204;28;20033;-73
2024/02/28 05:46:56;;;;;;;9.98;4.80;;;11.70;99.90;;;;;;5016142;28;20042;-73
2024/02/28 05:49:22;;;;;;;9.10;4.75;;;11.70;99.90;;;;;;5014720;28;20509;-73
2024/02/28 05:51:48;;;;;;;12.65;5.35;;;11.60;99.90;;;;;;5016187;28;20030;-74
2024/02/28 05:54:14;;;;;;;12.73;4.70;;;11.60;99.90;;;;;;5016205;28;20101;-74
2024/02/28 05:56:39;;;;;;;12.02;4.55;;;11.60;99.90;;;;;;5015965;28;20026;-73
2024/02/28 05:59:05;;;;;;;11.70;5.38;;;11.60;99.90;;;;;;5016113;28;20101;-72
2024/02/28 06:01:31;;;;;;;12.63;5.53;;;11.60;99.90;;;;;;5015914;28;20097;-73
2024/02/28 06:03:56;;;;;;;7.20;4.55;;;11.60;99.90;;;;;;5015744;28;20394;-74
2024/02/28 06:06:22;;;;;;;8.15;4.70;;;11.50;99.90;;;;;;5014354;28;20041;-73
2024/02/28 06:08:48;;;;;;;9.85;5.18;;;11.50;99.90;;;;;;5015855;28;20028;-73
2024/02/28 06:11:14;;;;;;;11.27;5.65;;;11.50;99.90;;;;;;5015635;28;20029;-73
2024/02/28 06:13:43;;;;;;;7.70;5.57;;;11.50;99.90;;;;;;5015775;28;20026;-74
2024/02/28 06:16:15;;;;;;;10.43;5.30;;;11.50;99.90;;;;;;5014454;28;20470;-73
2024/02/28 06:18:41;;;;;;;9.27;5.20;;;11.50;99.90;;;;;;5016807;28;20029;-73
2024/02/28 06:21:06;;;;;;;8.50;5.13;;;11.50;99.90;;;;;;5015438;28;20417;-73
2024/02/28 06:23:32;;;;;;;11.95;5.22;;;11.50;99.90;;;;;;5015338;28;20443;-73
2024/02/28 06:25:58;;;;;;;13.88;5.28;;;11.50;99.90;;;;;;5015309;28;20401;-73
2024/02/28 06:28:24;;;;;;;13.50;5.25;;;11.50;99.90;;;;;;5015121;28;20106;-73
2024/02/28 06:30:49;;;;;;;12.32;5.68;;;11.40;99.90;;;;;;5015198;28;20025;-74
2024/02/28 06:33:16;;;;;;;12.82;5.15;;;11.50;99.90;;;;;;5014414;28;20041;-70
2024/02/28 06:35:41;;;;;;;9.30;5.60;;;11.50;99.90;;;;;;5015129;28;20026;-71
2024/02/28 06:38:07;;;;;;;11.32;5.55;;;11.50;99.90;;;;;;5015353;28;20048;-70
2024/02/28 06:40:33;;;;;;;15.43;4.93;;;11.50;99.90;;;;;;5015367;28;20026;-69
2024/02/28 06:43:00;;;;;;;14.25;4.95;;;11.50;99.90;;;;;;5015226;28;20474;-70
2024/02/28 06:45:25;;;;;;;9.20;4.32;;;11.50;99.90;;;;;;5015093;28;20042;-70
2024/02/28 06:47:51;;;;;;;10.52;4.72;;;11.50;99.90;;;;;;5014928;28;20049;-69
2024/02/28 06:50:17;;;;;;;13.90;4.40;;;11.50;99.90;;;;;;5014847;28;20044;-70
2024/02/28 06:52:43;;;;;;;7.93;4.05;;;11.60;99.90;;;;;;5014728;28;20030;-70
2024/02/28 06:55:14;;;;;;;12.00;4.47;;;11.60;99.90;;;;;;5013188;28;20026;-70
2024/02/28 06:57:41;;;;;;;8.32;5.15;;;11.60;99.90;;;;;;5011065;28;20478;-69
2024/02/28 07:00:09;;;;;;;10.57;5.28;;;11.60;99.90;;;;;;5012502;28;20038;-69
2024/02/28 07:02:38;;;;;;;9.50;5.30;;;11.60;99.90;;;;;;5012264;28;20067;-71
2024/02/28 07:05:04;;;;;;;14.48;5.85;;;11.60;99.90;;;;;;5012662;28;20040;-69
2024/02/28 07:07:31;;;;;;;10.38;5.60;;;11.70;99.90;;;;;;5013868;28;20037;-72
2024/02/28 07:09:57;;;;;;;14.45;7.85;;;11.70;99.90;;;;;;5014270;28;20041;-73
2024/02/28 07:12:23;;;;;;;15.85;8.90;;;11.70;99.90;;;;;;5012960;28;20066;-71
2024/02/28 07:14:48;;;;;;;17.67;9.40;;;11.70;99.90;;;;;;5013706;28;20030;-72
2024/02/28 07:17:14;;;;;;;13.32;7.80;;;11.70;99.90;;;;;;5010160;28;20054;-73
2024/02/28 07:19:40;;;;;;;11.82;7.32;;;11.70;99.90;;;;;;5010537;28;20030;-73
2024/02/28 07:22:05;;;;;;;17.55;6.60;;;11.70;99.90;;;;;;5013013;28;20029;-74
2024/02/28 07:24:31;;;;;;;17.02;6.30;;;11.70;99.90;;;;;;5012974;28;20064;-73
2024/02/28 07:26:57;;;;;;;10.35;5.55;;;11.70;99.90;;;;;;5014434;28;20045;-73
2024/02/28 07:29:23;;;;;;;12.07;7.63;;;11.70;99.90;;;;;;5013925;28;20026;-73
2024/02/28 07:31:51;;;;;;;13.02;7.60;;;11.70;99.90;;;;;;5013548;28;20030;-74
2024/02/28 07:34:17;;;;;;;12.73;8.15;;;11.70;99.90;;;;;;5013532;28;20041;-73
2024/02/28 07:36:43;;;;;;;19.73;8.60;;;11.80;99.90;;;;;;5014441;28;20026;-73
2024/02/28 07:39:12;;;;;;;19.17;9.30;;;11.80;99.90;;;;;;5013060;28;20029;-73
2024/02/28 07:41:39;;;;;;;17.95;8.82;;;11.80;99.90;;;;;;5013932;28;20030;-72
2024/02/28 07:44:05;;;;;;;16.55;8.63;;;11.80;99.90;;;;;;5013307;28;20486;-72
2024/02/28 07:46:31;;;;;;;14.35;9.30;;;11.70;99.90;;;;;;5013884;28;20124;-72
2024/02/28 07:48:57;;;;;;;21.08;9.02;;;11.80;99.90;;;;;;5012652;28;20061;-71
2024/02/28 07:51:22;;;;;;;13.27;8.38;;;11.80;99.90;;;;;;5013558;28;20112;-72
2024/02/28 07:53:48;;;;;;;17.40;9.40;;;11.80;99.90;;;;;;5013054;28;20030;-73
2024/02/28 07:56:18;;;;;;;12.70;8.20;;;11.80;99.90;;;;;;5014003;28;20029;-72
2024/02/28 07:58:45;;;;;;;13.88;8.70;;;11.80;99.90;;;;;;5014013;28;20029;-71
2024/02/28 08:01:10;;;;;;;13.88;8.15;;;11.90;99.90;;;;;;5013784;28;20034;-72
2024/02/28 08:03:36;;;;;;;18.75;8.73;;;11.90;99.90;;;;;;5013693;28;20088;-72
2024/02/28 08:06:02;;;;;;;13.80;8.35;;;12.00;99.90;;;;;;5013656;28;20033;-73
2024/02/28 08:08:28;;;;;;;16.13;8.45;;;11.90;99.90;;;;;;5013170;28;20470;-72
2024/02/28 08:10:54;;;;;;;13.00;7.50;;;12.00;99.90;;;;;;5013636;28;20033;-72
2024/02/28 08:13:20;;;;;;;14.57;7.65;;;12.00;99.90;;;;;;5013424;28;20014;-71
2024/02/28 08:15:46;;;;;;;12.85;7.85;;;12.10;99.90;;;;;;5013524;28;20026;-72
2024/02/28 08:18:12;;;;;;;15.13;8.52;;;12.10;99.90;;;;;;5012013;28;20037;-72
2024/02/28 08:20:38;;;;;;;17.85;9.18;;;12.10;99.90;;;;;;5012939;28;20038;-72
2024/02/28 08:23:07;;;;;;;18.90;8.73;;;12.20;99.90;;;;;;5013119;28;20105;-72
2024/02/28 08:25:32;;;;;;;14.27;8.30;;;12.20;99.90;;;;;;5013468;28;20120;-71
2024/02/28 08:27:58;;;;;;;17.92;9.63;;;12.20;99.90;;;;;;5013131;28;20109;-72
2024/02/28 08:30:25;;;;;;;20.10;9.43;;;12.20;99.90;;;;;;5013407;28;20022;-72
2024/02/28 08:32:50;;;;;;;19.63;10.23;;;12.20;99.90;;;;;;5013461;28;20022;-72
2024/02/28 08:35:18;;;;;;;23.77;10.38;;;12.30;99.90;;;;;;5013249;28;20061;-72
2024/02/28 08:37:44;;;;;;;18.90;9.07;;;12.30;99.90;;;;;;5012996;28;20030;-72
2024/02/28 08:40:11;;;;;;;12.75;8.13;;;12.30;99.90;;;;;;5013156;28;20371;-70
2024/02/28 08:42:37;;;;;;;15.02;8.63;;;12.30;99.90;;;;;;5012990;28;20064;-72
2024/02/28 08:45:03;;;;;;;16.58;8.50;;;12.30;99.90;;;;;;5011905;28;20041;-72
2024/02/28 08:47:29;;;;;;;15.73;8.07;;;12.40;99.90;;;;;;5013023;28;20049;-70
2024/02/28 08:49:55;;;;;;;15.00;7.55;;;12.40;99.90;;;;;;5012982;28;20394;-70
2024/02/28 08:52:21;;;;;;;14.18;8.25;;;12.40;99.90;;;;;;5011926;28;20022;-71
2024/02/28 08:54:47;;;;;;;23.63;8.30;;;12.40;99.90;;;;;;5012575;28;20018;-70
2024/02/28 08:57:13;;;;;;;18.08;9.20;;;12.50;99.90;;;;;;5012753;28;20136;-69
2024/02/28 08:59:39;;;;;;;14.63;8.93;;;12.50;99.90;;;;;;5013037;28;20464;-71
2024/02/28 09:02:06;;;;;;;18.38;8.82;;;12.50;99.90;;;;;;5013101;28;20080;-70
2024/02/28 09:04:32;;;;;;;16.25;8.00;;;12.60;99.90;;;;;;5011375;28;20022;-70
2024/02/28 09:06:58;;;;;;;15.18;8.38;;;12.60;99.90;;;;;;5009938;28;20033;-71
2024/02/28 09:09:24;;;;;;;13.80;8.68;;;12.70;99.90;;;;;;5009772;28;20117;-70
2024/02/28 09:11:49;;;;;;;13.93;8.18;;;12.70;99.90;;;;;;5009572;28;20037;-69
2024/02/28 09:14:15;;;;;;;11.77;8.90;;;12.70;99.90;;;;;;5009947;28;20034;-70
2024/02/28 09:16:41;;;;;;;12.30;8.20;;;12.80;99.90;;;;;;5009677;28;20075;-70
2024/02/28 09:19:07;;;;;;;15.50;7.50;;;12.80;99.90;;;;;;5010674;28;20201;-70
2024/02/28 09:21:32;;;;;;;20.23;7.32;;;12.90;99.90;;;;;;5011407;28;20156;-69
2024/02/28 09:23:58;;;;;;;17.40;8.82;;;12.90;99.90;;;;;;5012934;28;20037;-69
2024/02/28 09:26:24;;;;;;;12.23;6.40;;;12.90;99.90;;;;;;5012825;28;20033;-69
2024/02/28 09:28:49;;;;;;;11.98;6.32;;;13.00;99.90;;;;;;5012883;28;20034;-72
2024/02/28 09:31:15;;;;;;;12.75;6.00;;;13.00;99.90;;;;;;5012794;28;20033;-73
2024/02/28 09:33:41;;;;;;;10.57;5.03;;;13.00;99.90;;;;;;5012790;28;20025;-72
2024/02/28 09:36:07;;;;;;;13.32;5.22;;;13.10;99.90;;;;;;5012690;28;20504;-73
2024/02/28 09:38:34;;;;;;;11.48;5.18;;;13.10;99.90;;;;;;5012805;28;20041;-71
2024/02/28 09:41:04;;;;;;;15.57;6.07;;;13.10;99.90;;;;;;5012814;28;20097;-72
2024/02/28 09:43:40;;;;;;;16.52;5.93;;;13.10;99.90;;;;;;5013012;28;20030;-73
2024/02/28 09:46:07;;;;;;;13.70;5.75;;;13.10;99.90;;;;;;5012843;28;20034;-72
2024/02/28 09:48:33;;;;;;;9.40;5.78;;;13.20;99.90;;;;;;5012748;28;20038;-72
2024/02/28 09:51:00;;;;;;;12.65;6.00;;;13.20;99.90;;;;;;5012726;28;20034;-72
2024/02/28 09:53:26;;;;;;;13.38;5.53;;;13.20;99.90;;;;;;5012788;28;20026;-73
2024/02/28 09:55:53;;;;;;;12.95;6.20;;;13.20;99.90;;;;;;5015869;28;20100;-73
2024/02/28 09:58:22;;;;;;;15.27;6.43;;;13.30;99.90;;;;;;5016516;28;20026;-73
2024/02/28 10:00:49;;;;;;;14.13;5.95;;;13.30;99.90;;;;;;5016312;28;20057;-72
2024/02/28 10:03:18;;;;;;;9.93;5.07;;;13.30;99.90;;;;;;5016185;28;20088;-72
2024/02/28 10:05:45;;;;;;;14.75;5.78;;;13.40;99.90;;;;;;5016019;28;20129;-72
2024/02/28 10:08:13;;;;;;;19.27;6.53;;;13.40;99.90;;;;;;5016462;28;20042;-72
2024/02/28 10:10:44;;;;;;;13.80;7.47;;;13.40;99.90;;;;;;5016191;28;20076;-72
2024/02/28 10:13:10;;;;;;;17.23;6.82;;;13.40;99.90;;;;;;5016299;28;20033;-72
2024/02/28 10:15:35;;;;;;;13.45;7.22;;;13.40;99.90;;;;;;5016165;28;20033;-73
2024/02/28 10:18:01;;;;;;;14.23;5.88;;;13.40;99.90;;;;;;5015367;28;20022;-72
2024/02/28 10:20:27;;;;;;;12.43;6.25;;;13.50;99.90;;;;;;5015405;28;20034;-73
2024/02/28 10:22:53;;;;;;;14.25;6.40;;;13.50;99.90;;;;;;5015110;28;20037;-71
2024/02/28 10:25:19;;;;;;;13.77;6.63;;;13.50;99.90;;;;;;5015814;28;20397;-69
2024/02/28 10:27:46;;;;;;;14.82;6.07;;;13.60;99.90;;;;;;5015520;28;20033;-69
2024/02/28 10:30:12;;;;;;;10.98;5.43;;;13.60;99.90;;;;;;5015533;28;20421;-69
2024/02/28 10:32:51;;;;;;;12.65;5.00;;;13.60;99.90;;;;;;5015532;28;20394;-69
2024/02/28 10:35:20;;;;;;;13.68;4.78;;;13.60;99.90;;;;;;5014651;28;20053;-69
2024/02/28 10:37:47;;;;;;;13.55;4.95;;;13.70;99.90;;;;;;5015400;28;20018;-69
2024/02/28 10:40:16;;;;;;;10.48;4.28;;;13.70;99.90;;;;;;5015226;28;20018;-69
2024/02/28 10:42:42;;;;;;;13.60;4.60;;;13.70;99.90;;;;;;5015209;28;20418;-69
2024/02/28 10:45:12;;;;;;;10.82;4.55;;;13.70;99.90;;;;;;5015437;28;20065;-69
2024/02/28 10:47:41;;;;;;;18.77;5.07;;;13.70;99.90;;;;;;5014973;28;20156;-69
2024/02/28 10:50:07;;;;;;;17.10;5.55;;;13.80;99.90;;;;;;5015330;28;20030;-69
2024/02/28 10:52:37;;;;;;;14.13;4.72;;;13.80;99.90;;;;;;5015477;28;20543;-69
2024/02/28 10:55:05;;;;;;;14.43;5.28;;;13.80;99.90;;;;;;5014846;28;20033;-69
2024/02/28 10:57:35;;;;;;;11.85;4.95;;;13.80;99.90;;;;;;5014802;28;20108;-68
2024/02/28 11:00:04;;;;;;;11.80;5.10;;;13.80;99.90;;;;;;5015251;28;20097;-69
2024/02/28 11:02:31;;;;;;;14.93;5.53;;;13.90;99.90;;;;;;5015069;28;20036;-69
2024/02/28 11:04:58;;;;;;;19.38;5.07;;;13.90;99.90;;;;;;5014541;28;20038;-69
2024/02/28 11:07:24;;;;;;;10.23;4.28;;;14.00;99.90;;;;;;5014786;28;20030;-69
2024/02/28 11:10:07;;;;;;;9.40;4.55;;;14.00;99.90;;;;;;5014790;28;20030;-69
2024/02/28 11:12:33;;;;;;;15.40;4.88;;;14.10;99.90;;;;;;5014889;28;20076;-68
2024/02/28 11:15:02;;;;;;;17.15;5.32;;;14.20;99.90;;;;;;5014630;28;20108;-69
2024/02/28 11:17:29;;;;;;;17.05;4.32;;;14.30;99.90;;;;;;5014638;28;20034;-68
2024/02/28 11:19:56;;;;;;;15.13;4.50;;;14.30;99.90;;;;;;5014879;28;20030;-69
2024/02/28 11:22:21;;;;;;;20.05;5.30;;;14.40;99.90;;;;;;5014668;28;20156;-69
2024/02/28 11:24:50;;;;;;;15.20;4.97;;;14.50;99.90;;;;;;5014507;28;20112;-68
2024/02/28 11:27:16;;;;;;;11.68;4.20;;;14.50;99.90;;;;;;5014759;28;20029;-68
2024/02/28 11:29:42;;;;;;;11.70;3.95;;;14.60;99.90;;;;;;5014585;28;20022;-69
2024/02/28 11:32:10;;;;;;;11.85;4.45;;;14.70;99.90;;;;;;5014700;28;20463;-69
2024/02/28 11:34:36;;;;;;;14.77;4.47;;;14.70;99.90;;;;;;5014341;28;20030;-68
2024/02/28 11:37:03;;;;;;;15.20;4.22;;;14.70;99.90;;;;;;5014496;28;20029;-69
2024/02/28 11:39:31;;;;;;;13.05;4.57;;;14.80;99.90;;;;;;5014578;28;20058;-69
2024/02/28 11:42:09;;;;;;;17.20;4.30;;;14.80;99.90;;;;;;5013178;28;20065;-69
2024/02/28 11:44:34;;;;;;;12.52;4.40;;;14.80;99.90;;;;;;5014154;28;20032;-69
2024/02/28 11:47:00;;;;;;;18.38;4.22;;;14.80;99.90;;;;;;5014185;28;20046;-69
2024/02/28 11:49:26;;;;;;;16.48;3.83;;;14.90;99.90;;;;;;5014055;28;20030;-69
2024/02/28 11:51:51;;;;;;;11.63;3.72;;;14.90;99.90;;;;;;5014167;28;20030;-69
2024/02/28 11:54:17;;;;;;;14.52;4.43;;;15.00;99.90;;;;;;5013912;28;20049;-69
2024/02/28 11:56:43;;;;;;;12.98;3.97;;;15.00;99.90;;;;;;5012870;28;20026;-69
2024/02/28 11:59:11;;;;;;;16.20;3.78;;;15.10;99.90;;;;;;5014043;28;20030;-69
2024/02/28 12:01:46;;;;;;;13.43;3.83;;;15.20;99.90;;;;;;5014162;28;20022;-69
2024/02/28 12:04:12;;;;;;;14.38;4.72;;;15.20;99.90;;;;;;5013898;28;20026;-69
2024/02/28 12:06:39;;;;;;;13.68;3.38;;;15.20;99.90;;;;;;5013433;28;20124;-68
2024/02/28 12:09:08;;;;;;;14.80;3.58;;;15.30;99.90;;;;;;5014072;28;20121;-69
2024/02/28 12:11:35;;;;;;;8.25;2.88;;;15.30;99.90;;;;;;5014047;28;20030;-69
2024/02/28 12:14:08;;;;;;;13.65;3.38;;;15.30;99.90;;;;;;5013914;28;20101;-69
2024/02/28 12:16:36;;;;;;;10.88;3.28;;;15.40;99.90;;;;;;5013794;28;20545;-69
2024/02/28 12:19:11;;;;;;;12.93;3.80;;;15.40;99.90;;;;;;5013422;28;20049;-69
2024/02/28 12:21:38;;;;;;;14.18;3.38;;;15.40;99.90;;;;;;5013612;28;20526;-69
2024/02/28 12:24:11;;;;;;;14.00;3.20;;;15.40;99.90;;;;;;5013266;28;20033;-70
2024/02/28 12:26:38;;;;;;;19.17;3.83;;;15.30;99.90;;;;;;5013171;28;20064;-68
2024/02/28 12:29:04;;;;;;;8.77;3.20;;;15.30;99.90;;;;;;5013609;28;20523;-69
2024/02/28 12:31:29;;;;;;;16.70;4.13;;;15.30;99.90;;;;;;5013255;28;20105;-72
2024/02/28 12:33:55;;;;;;;11.50;3.20;;;15.30;99.90;;;;;;5013569;28;20025;-71
2024/02/28 12:36:21;;;;;;;17.25;5.72;;;15.30;99.90;;;;;;5013589;28;20104;-68